Back to Top

Language: 

My Weather Underground Personal Weather Station Historical Data with Graphs...

Delerius Weather Station Historical Data
Daily Summary for February 17, 2017 Units:  English    Metric   Both
« Previous Day
Next Day »
Daily Weekly Monthly Yearly Custom
  High: Low: Average:
Temperature: 51.0 °F 44.4 °F 47.5 °F
Dew Point: 46.7 °F 42.2 °F 44.3 °F
Humidity: 94 % 80 % 89 %
Wind Speed: 8.0 mph 0.0 mph 2.3 mph
Wind Gust: 12.0 mph - -
Wind:- - WSW
Pressure: 30.33 in 30.24 in -
Precipitation: 0.00 in    
Historical Graphs
 
 
Tabular Data for February 17, 2017
Time Temperature Dew Point Pressure Wind Wind Speed Wind Gust Humidity Rainfall Rate (Hourly) solar Conditions
00:05 46.7 °F 43.9 °F 30.28 in West 6.0 mph 12.0 mph 90 % 0.00 in 0 W/m2
00:15 46.8 °F 44.0 °F 30.27 in WSW 6.0 mph 6.0 mph 90 % 0.00 in 0 W/m2
00:20 46.8 °F 44.0 °F 30.27 in WSW 6.0 mph 7.0 mph 90 % 0.00 in 0 W/m2
00:25 46.8 °F 44.0 °F 30.27 in West 7.0 mph 7.0 mph 90 % 0.00 in 0 W/m2
00:30 46.9 °F 43.8 °F 30.27 in SW 7.0 mph 8.0 mph 89 % 0.00 in 0 W/m2
00:40 46.9 °F 43.8 °F 30.28 in West 6.0 mph 6.0 mph 89 % 0.00 in 0 W/m2
00:45 47.0 °F 43.9 °F 30.28 in WNW 6.0 mph 9.0 mph 89 % 0.00 in 0 W/m2
00:50 46.9 °F 43.8 °F 30.28 in West 6.0 mph 6.0 mph 89 % 0.00 in 0 W/m2
00:55 46.9 °F 43.8 °F 30.28 in West 7.0 mph 8.0 mph 89 % 0.00 in 0 W/m2
01:00 46.8 °F 43.7 °F 30.28 in WNW 6.0 mph 6.0 mph 89 % 0.00 in 0 W/m2
01:10 46.8 °F 44.0 °F 30.28 in West 8.0 mph 8.0 mph 90 % 0.00 in 0 W/m2
01:15 46.9 °F 44.1 °F 30.28 in WSW 7.0 mph 12.0 mph 90 % 0.00 in 0 W/m2
01:25 46.8 °F 44.0 °F 30.28 in West 4.0 mph 7.0 mph 90 % 0.00 in 0 W/m2
01:30 46.8 °F 44.0 °F 30.28 in West 4.0 mph 12.0 mph 90 % 0.00 in 0 W/m2
01:35 46.9 °F 44.1 °F 30.28 in West 5.0 mph 12.0 mph 90 % 0.00 in 0 W/m2
01:45 47.0 °F 43.9 °F 30.29 in WSW 6.0 mph 12.0 mph 89 % 0.00 in 0 W/m2
01:50 47.1 °F 44.0 °F 30.28 in NW 6.0 mph 6.0 mph 89 % 0.00 in 0 W/m2
01:55 47.0 °F 43.9 °F 30.28 in West 6.0 mph 9.0 mph 89 % 0.00 in 0 W/m2
02:00 47.0 °F 43.9 °F 30.28 in WNW 8.0 mph 8.0 mph 89 % 0.00 in 0 W/m2
02:10 46.6 °F 43.5 °F 30.27 in WNW 8.0 mph 8.0 mph 89 % 0.00 in 0 W/m2
02:15 46.5 °F 43.4 °F 30.28 in WNW 8.0 mph 12.0 mph 89 % 0.00 in 0 W/m2
02:20 46.3 °F 43.2 °F 30.28 in WNW 7.0 mph 7.0 mph 89 % 0.00 in 0 W/m2
02:25 46.1 °F 43.3 °F 30.28 in WNW 6.0 mph 12.0 mph 90 % 0.00 in 0 W/m2
02:35 45.8 °F 43.0 °F 30.28 in WNW 5.0 mph 12.0 mph 90 % 0.00 in 0 W/m2
02:40 45.6 °F 42.8 °F 30.27 in WNW 4.0 mph 12.0 mph 90 % 0.00 in 0 W/m2
02:45 45.5 °F 42.7 °F 30.27 in WNW 4.0 mph 12.0 mph 90 % 0.00 in 0 W/m2
02:55 45.2 °F 42.7 °F 30.27 in WNW 4.0 mph 12.0 mph 91 % 0.00 in 0 W/m2
03:00 45.3 °F 42.8 °F 30.27 in WNW 5.0 mph 12.0 mph 91 % 0.00 in 0 W/m2
03:10 45.3 °F 42.8 °F 30.27 in WNW 5.0 mph 12.0 mph 91 % 0.00 in 0 W/m2
03:15 45.3 °F 42.8 °F 30.27 in NW 5.0 mph 12.0 mph 91 % 0.00 in 0 W/m2
03:20 45.2 °F 42.7 °F 30.26 in WNW 5.0 mph 5.0 mph 91 % 0.00 in 0 W/m2
03:30 45.2 °F 42.7 °F 30.27 in NW 4.0 mph 4.0 mph 91 % 0.00 in 0 W/m2
03:35 45.1 °F 42.6 °F 30.27 in NNW 2.0 mph 12.0 mph 91 % 0.00 in 0 W/m2
03:40 45.0 °F 42.5 °F 30.27 in SSW 1.0 mph 12.0 mph 91 % 0.00 in 0 W/m2
03:45 44.9 °F 42.4 °F 30.27 in SSW 1.0 mph 12.0 mph 91 % 0.00 in 0 W/m2
03:55 44.6 °F 42.4 °F 30.27 in Calm   12.0 mph 92 % 0.00 in 0 W/m2
04:00 44.5 °F 42.3 °F 30.27 in Calm   12.0 mph 92 % 0.00 in 0 W/m2
04:05 44.5 °F 42.3 °F 30.28 in Calm   12.0 mph 92 % 0.00 in 0 W/m2
04:10 44.4 °F 42.2 °F 30.28 in Calm   12.0 mph 92 % 0.00 in 0 W/m2
04:20 44.5 °F 42.6 °F 30.28 in Calm   12.0 mph 93 % 0.00 in 0 W/m2
04:25 44.6 °F 42.7 °F 30.28 in Calm   12.0 mph 93 % 0.00 in 0 W/m2
04:30 44.6 °F 42.7 °F 30.28 in SSW 1.0 mph 1.0 mph 93 % 0.00 in 0 W/m2
04:40 44.6 °F 42.7 °F 30.28 in Calm   12.0 mph 93 % 0.00 in 0 W/m2
04:45 44.6 °F 42.7 °F 30.28 in Calm   12.0 mph 93 % 0.00 in 0 W/m2
04:50 44.5 °F 42.6 °F 30.28 in Calm   12.0 mph 93 % 0.00 in 0 W/m2
04:55 44.6 °F 42.7 °F 30.27 in SSW 1.0 mph 12.0 mph 93 % 0.00 in 0 W/m2
05:05 44.7 °F 42.8 °F 30.28 in SW 1.0 mph 12.0 mph 93 % 0.00 in 0 W/m2
05:10 44.7 °F 42.8 °F 30.28 in SW 1.0 mph 12.0 mph 93 % 0.00 in 0 W/m2
05:15 44.8 °F 43.2 °F 30.29 in SW 1.0 mph 12.0 mph 94 % 0.00 in 0 W/m2
05:20 45.0 °F 43.4 °F 30.29 in SW 1.0 mph 1.0 mph 94 % 0.00 in 0 W/m2
05:30 45.2 °F 43.3 °F 30.28 in WSW 1.0 mph 12.0 mph 93 % 0.00 in 0 W/m2
05:35 45.2 °F 43.3 °F 30.28 in WSW 1.0 mph 12.0 mph 93 % 0.00 in 0 W/m2
05:40 45.2 °F 43.3 °F 30.28 in WSW 1.0 mph 1.0 mph 93 % 0.00 in 0 W/m2
05:45 45.2 °F 43.3 °F 30.29 in Calm   12.0 mph 93 % 0.00 in 0 W/m2
05:55 45.2 °F 43.3 °F 30.28 in Calm   12.0 mph 93 % 0.00 in 0 W/m2
06:00 45.2 °F 43.3 °F 30.28 in NW 1.0 mph 12.0 mph 93 % 0.00 in 0 W/m2
06:05 45.2 °F 43.6 °F 30.28 in NW 3.0 mph 12.0 mph 94 % 0.00 in 0 W/m2
06:15 45.4 °F 43.8 °F 30.28 in WNW 2.0 mph 12.0 mph 94 % 0.00 in 0 W/m2
06:20 45.4 °F 43.8 °F 30.28 in WNW 1.0 mph 1.0 mph 94 % 0.00 in 0 W/m2
06:25 45.4 °F 43.5 °F 30.28 in Calm   12.0 mph 93 % 0.00 in 0 W/m2
06:30 45.4 °F 43.5 °F 30.28 in Calm   12.0 mph 93 % 0.00 in 0 W/m2
06:40 45.4 °F 43.8 °F 30.29 in WNW 1.0 mph 1.0 mph 94 % 0.00 in 0 W/m2
06:45 45.4 °F 43.8 °F 30.29 in Calm   12.0 mph 94 % 0.00 in 0 W/m2
06:50 45.3 °F 43.7 °F 30.29 in Calm   12.0 mph 94 % 0.00 in 0 W/m2
07:00 45.5 °F 43.9 °F 30.29 in WNW 1.0 mph 12.0 mph 94 % 0.00 in 0 W/m2
07:05 45.5 °F 43.9 °F 30.29 in WNW 1.0 mph 12.0 mph 94 % 0.00 in 0 W/m2
07:10 45.6 °F 44.0 °F 30.29 in WNW 1.0 mph 1.0 mph 94 % 0.00 in 0 W/m2
07:15 45.6 °F 44.0 °F 30.29 in WNW 1.0 mph 12.0 mph 94 % 0.00 in 0 W/m2
07:25 45.6 °F 44.0 °F 30.29 in WNW 1.0 mph 12.0 mph 94 % 0.00 in 5 W/m2
07:30 45.7 °F 44.1 °F 30.30 in WNW 1.0 mph 1.0 mph 94 % 0.00 in 9 W/m2
07:35 45.8 °F 44.2 °F 30.30 in Calm   12.0 mph 94 % 0.00 in 11 W/m2
07:45 45.8 °F 44.2 °F 30.30 in Calm   12.0 mph 94 % 0.00 in 14 W/m2
07:50 45.8 °F 44.2 °F 30.30 in Calm   12.0 mph 94 % 0.00 in 16 W/m2
07:55 45.8 °F 44.2 °F 30.30 in Calm   12.0 mph 94 % 0.00 in 19 W/m2
08:00 45.7 °F 44.1 °F 30.30 in Calm   12.0 mph 94 % 0.00 in 25 W/m2
08:05 45.8 °F 44.2 °F 30.30 in Calm   12.0 mph 94 % 0.00 in 23 W/m2
08:10 45.8 °F 44.2 °F 30.31 in Calm   12.0 mph 94 % 0.00 in 26 W/m2
08:15 45.8 °F 44.2 °F 30.31 in Calm   12.0 mph 94 % 0.00 in 33 W/m2
08:20 45.9 °F 44.3 °F 30.31 in Calm   12.0 mph 94 % 0.00 in 33 W/m2
08:30 46.1 °F 44.5 °F 30.31 in WNW 1.0 mph 12.0 mph 94 % 0.00 in 28 W/m2
08:35 46.3 °F 44.7 °F 30.31 in WNW 1.0 mph 12.0 mph 94 % 0.00 in 30 W/m2
08:40 46.4 °F 44.8 °F 30.31 in Calm   12.0 mph 94 % 0.00 in 44 W/m2
08:50 46.6 °F 45.0 °F 30.31 in WNW 1.0 mph 12.0 mph 94 % 0.00 in 56 W/m2
08:55 46.8 °F 45.2 °F 30.32 in WNW 2.0 mph 12.0 mph 94 % 0.00 in 56 W/m2
09:00 46.9 °F 45.3 °F 30.32 in WNW 1.0 mph 12.0 mph 94 % 0.00 in 60 W/m2
09:10 47.3 °F 45.7 °F 30.32 in West 2.0 mph 2.0 mph 94 % 0.00 in 49 W/m2
09:15 47.4 °F 45.8 °F 30.32 in West 2.0 mph 12.0 mph 94 % 0.00 in 60 W/m2
09:20 47.5 °F 45.6 °F 30.32 in West 1.0 mph 12.0 mph 93 % 0.00 in 69 W/m2
09:25 47.6 °F 45.7 °F 30.32 in WNW 2.0 mph 12.0 mph 93 % 0.00 in 62 W/m2
09:35 47.8 °F 45.9 °F 30.32 in WNW 2.0 mph 12.0 mph 93 % 0.00 in 83 W/m2
09:40 47.8 °F 45.9 °F 30.32 in WNW 3.0 mph 3.0 mph 93 % 0.00 in 65 W/m2
09:50 47.9 °F 45.7 °F 30.32 in WNW 2.0 mph 12.0 mph 92 % 0.00 in 62 W/m2
10:00 48.1 °F 45.9 °F 30.32 in WNW 2.0 mph 2.0 mph 92 % 0.00 in 76 W/m2
10:05 48.1 °F 45.9 °F 30.33 in WNW 2.0 mph 12.0 mph 92 % 0.00 in 77 W/m2
10:10 48.2 °F 46.0 °F 30.32 in WNW 2.0 mph 12.0 mph 92 % 0.00 in 90 W/m2
10:15 48.3 °F 46.1 °F 30.32 in WNW 2.0 mph 12.0 mph 92 % 0.00 in 83 W/m2
10:20 48.3 °F 45.8 °F 30.33 in WNW 3.0 mph 12.0 mph 91 % 0.00 in 70 W/m2
10:25 48.4 °F 45.9 °F 30.33 in WSW 3.0 mph 12.0 mph 91 % 0.00 in 83 W/m2
10:30 48.5 °F 46.0 °F 30.32 in WNW 3.0 mph 12.0 mph 91 % 0.00 in 95 W/m2
10:40 48.7 °F 46.2 °F 30.33 in WNW 3.0 mph 12.0 mph 91 % 0.00 in 100 W/m2
10:50 48.9 °F 46.1 °F 30.32 in WNW 4.0 mph 4.0 mph 90 % 0.00 in 137 W/m2
10:55 49.1 °F 46.3 °F 30.32 in WNW 3.0 mph 12.0 mph 90 % 0.00 in 118 W/m2
11:00 49.2 °F 46.4 °F 30.32 in WNW 1.0 mph 12.0 mph 90 % 0.00 in 127 W/m2
11:05 49.4 °F 46.6 °F 30.32 in WNW 1.0 mph 12.0 mph 90 % 0.00 in 134 W/m2
11:15 49.7 °F 46.6 °F 30.32 in West 3.0 mph 12.0 mph 89 % 0.00 in 137 W/m2
11:25 50.0 °F 46.6 °F 30.32 in WNW 4.0 mph 12.0 mph 88 % 0.00 in 109 W/m2
11:35 50.2 °F 46.5 °F 30.32 in WNW 3.0 mph 12.0 mph 87 % 0.00 in 125 W/m2
11:40 50.4 °F 46.7 °F 30.32 in NW 2.0 mph 12.0 mph 87 % 0.00 in 114 W/m2
11:50 50.6 °F 46.6 °F 30.32 in West 2.0 mph 2.0 mph 86 % 0.00 in 132 W/m2
11:55 50.7 °F 46.7 °F 30.32 in West 1.0 mph 12.0 mph 86 % 0.00 in 130 W/m2
12:00 50.7 °F 46.4 °F 30.32 in West 1.0 mph 12.0 mph 85 % 0.00 in 134 W/m2
12:10 50.9 °F 46.6 °F 30.32 in West 2.0 mph 2.0 mph 85 % 0.00 in 113 W/m2
12:15 51.0 °F 46.3 °F 30.32 in WSW 3.0 mph 3.0 mph 84 % 0.00 in 135 W/m2
12:25 51.0 °F 46.0 °F 30.32 in West 4.0 mph 12.0 mph 83 % 0.00 in 116 W/m2
12:30 50.8 °F 46.1 °F 30.32 in SW 6.0 mph 12.0 mph 84 % 0.00 in 125 W/m2
12:35 50.7 °F 46.0 °F 30.32 in WSW 6.0 mph 12.0 mph 84 % 0.00 in 121 W/m2
12:40 50.6 °F 45.9 °F 30.32 in SW 5.0 mph 12.0 mph 84 % 0.00 in 107 W/m2
16:35 50.9 °F 44.9 °F 30.27 in South 2.0 mph 4.0 mph 80 % 0.00 in 21 W/m2
16:45 50.9 °F 44.9 °F 30.27 in South 1.0 mph 1.0 mph 80 % 0.00 in 18 W/m2
16:50 50.8 °F 44.9 °F 30.27 in SSE 1.0 mph 1.0 mph 80 % 0.00 in 11 W/m2
16:55 50.7 °F 45.1 °F 30.27 in South 1.0 mph 5.0 mph 81 % 0.00 in 7 W/m2
17:00 50.6 °F 45.0 °F 30.27 in SSW 2.0 mph 2.0 mph 81 % 0.00 in 5 W/m2
17:10 50.4 °F 44.8 °F 30.27 in SSW 1.0 mph 1.0 mph 81 % 0.00 in 0 W/m2
17:15 50.4 °F 45.1 °F 30.27 in SSE 1.0 mph 2.0 mph 82 % 0.00 in 0 W/m2
17:20 50.2 °F 44.9 °F 30.27 in SE 2.0 mph 2.0 mph 82 % 0.00 in 0 W/m2
17:25 50.2 °F 44.9 °F 30.27 in SSE 2.0 mph 4.0 mph 82 % 0.00 in 0 W/m2
17:30 50.1 °F 44.8 °F 30.27 in South 2.0 mph 2.0 mph 82 % 0.00 in 0 W/m2
17:40 49.9 °F 44.9 °F 30.27 in South 1.0 mph 7.0 mph 83 % 0.00 in 0 W/m2
17:45 49.8 °F 44.8 °F 30.27 in South 1.0 mph 7.0 mph 83 % 0.00 in 0 W/m2
17:50 49.7 °F 44.7 °F 30.27 in SE 2.0 mph 7.0 mph 83 % 0.00 in 0 W/m2
17:55 49.6 °F 45.0 °F 30.27 in SE 2.0 mph 7.0 mph 84 % 0.00 in 0 W/m2
18:00 49.5 °F 44.9 °F 30.27 in SE 2.0 mph 7.0 mph 84 % 0.00 in 0 W/m2
18:10 49.3 °F 44.7 °F 30.27 in SE 3.0 mph 7.0 mph 84 % 0.00 in 0 W/m2
18:15 49.2 °F 44.9 °F 30.27 in SSE 3.0 mph 7.0 mph 85 % 0.00 in 0 W/m2
18:20 49.1 °F 44.8 °F 30.27 in SSE 3.0 mph 7.0 mph 85 % 0.00 in 0 W/m2
18:25 49.1 °F 44.8 °F 30.27 in SE 3.0 mph 7.0 mph 85 % 0.00 in 0 W/m2
18:35 49.0 °F 45.0 °F 30.27 in SE 3.0 mph 7.0 mph 86 % 0.00 in 0 W/m2
18:40 49.1 °F 45.1 °F 30.27 in SE 3.0 mph 3.0 mph 86 % 0.00 in 0 W/m2
18:45 49.0 °F 45.0 °F 30.27 in SE 3.0 mph 6.0 mph 86 % 0.00 in 0 W/m2
18:50 49.0 °F 45.0 °F 30.27 in SSE 3.0 mph 7.0 mph 86 % 0.00 in 0 W/m2
18:55 49.0 °F 45.0 °F 30.27 in SSE 3.0 mph 7.0 mph 86 % 0.00 in 0 W/m2
19:00 48.9 °F 44.9 °F 30.27 in SSE 3.0 mph 3.0 mph 86 % 0.00 in 0 W/m2
19:10 48.8 °F 44.8 °F 30.26 in SSE 2.0 mph 2.0 mph 86 % 0.00 in 0 W/m2
19:15 48.8 °F 44.8 °F 30.26 in South 2.0 mph 7.0 mph 86 % 0.00 in 0 W/m2
19:20 48.7 °F 44.7 °F 30.26 in South 1.0 mph 7.0 mph 86 % 0.00 in 0 W/m2
19:30 48.6 °F 44.9 °F 30.26 in SSW 1.0 mph 1.0 mph 87 % 0.00 in 0 W/m2
19:40 48.5 °F 44.8 °F 30.26 in Calm   7.0 mph 87 % 0.00 in 0 W/m2
19:45 48.4 °F 44.7 °F 30.26 in SSW 1.0 mph 7.0 mph 87 % 0.00 in 0 W/m2
19:50 48.4 °F 44.7 °F 30.26 in SSW 1.0 mph 1.0 mph 87 % 0.00 in 0 W/m2
19:55 48.3 °F 44.6 °F 30.26 in SSW 1.0 mph 4.0 mph 87 % 0.00 in 0 W/m2
20:05 48.3 °F 44.3 °F 30.26 in SSW 1.0 mph 2.0 mph 86 % 0.00 in 0 W/m2
20:10 48.3 °F 44.3 °F 30.26 in SSW 2.0 mph 2.0 mph 86 % 0.00 in 0 W/m2
20:15 48.3 °F 44.3 °F 30.26 in SW 2.0 mph 7.0 mph 86 % 0.00 in 0 W/m2
20:20 48.3 °F 44.3 °F 30.26 in SW 2.0 mph 7.0 mph 86 % 0.00 in 0 W/m2
20:30 48.3 °F 44.0 °F 30.26 in SSW 3.0 mph 7.0 mph 85 % 0.00 in 0 W/m2
20:40 48.6 °F 44.3 °F 30.26 in SSW 5.0 mph 7.0 mph 85 % 0.00 in 0 W/m2
20:45 48.6 °F 44.3 °F 30.26 in SSW 4.0 mph 7.0 mph 85 % 0.00 in 0 W/m2
20:50 48.6 °F 44.0 °F 30.26 in South 2.0 mph 2.0 mph 84 % 0.00 in 0 W/m2
20:55 48.6 °F 44.0 °F 30.26 in South 1.0 mph 7.0 mph 84 % 0.00 in 0 W/m2
21:05 48.4 °F 44.1 °F 30.26 in Calm   7.0 mph 85 % 0.00 in 0 W/m2
21:15 48.2 °F 43.9 °F 30.26 in Calm   7.0 mph 85 % 0.00 in 0 W/m2
21:20 48.1 °F 44.1 °F 30.26 in Calm   7.0 mph 86 % 0.00 in 0 W/m2
21:25 48.0 °F 44.0 °F 30.26 in Calm   7.0 mph 86 % 0.00 in 0 W/m2
21:30 48.0 °F 44.0 °F 30.26 in SW 1.0 mph 7.0 mph 86 % 0.00 in 0 W/m2
21:40 48.2 °F 44.2 °F 30.26 in West 2.0 mph 2.0 mph 86 % 0.00 in 0 W/m2
21:50 48.2 °F 43.9 °F 30.26 in South 1.0 mph 7.0 mph 85 % 0.00 in 0 W/m2
21:55 48.2 °F 43.9 °F 30.26 in SSW 1.0 mph 7.0 mph 85 % 0.00 in 0 W/m2
22:05 48.4 °F 44.1 °F 30.25 in South 3.0 mph 7.0 mph 85 % 0.00 in 0 W/m2
22:10 48.3 °F 44.0 °F 30.25 in SSE 3.0 mph 3.0 mph 85 % 0.00 in 0 W/m2
22:15 48.2 °F 43.9 °F 30.25 in SSE 2.0 mph 7.0 mph 85 % 0.00 in 0 W/m2
22:20 48.0 °F 44.0 °F 30.25 in SSE 1.0 mph 7.0 mph 86 % 0.00 in 0 W/m2
22:25 47.8 °F 43.8 °F 30.25 in Calm   7.0 mph 86 % 0.00 in 0 W/m2
22:30 47.8 °F 43.8 °F 30.25 in Calm   7.0 mph 86 % 0.00 in 0 W/m2
22:40 47.9 °F 43.9 °F 30.25 in SSE 2.0 mph 2.0 mph 86 % 0.00 in 0 W/m2
22:45 47.9 °F 43.9 °F 30.25 in SSE 1.0 mph 7.0 mph 86 % 0.00 in 0 W/m2
22:55 47.9 °F 43.9 °F 30.25 in Calm   7.0 mph 86 % 0.00 in 0 W/m2
23:00 47.9 °F 43.9 °F 30.25 in Calm   7.0 mph 86 % 0.00 in 0 W/m2
23:05 47.9 °F 43.9 °F 30.25 in Calm   7.0 mph 86 % 0.00 in 0 W/m2
23:10 47.9 °F 43.9 °F 30.25 in SSW 1.0 mph 1.0 mph 86 % 0.00 in 0 W/m2
23:15 47.9 °F 43.9 °F 30.25 in WSW 1.0 mph 2.0 mph 86 % 0.00 in 0 W/m2
23:25 48.0 °F 44.0 °F 30.24 in WNW 3.0 mph 6.0 mph 86 % 0.00 in 0 W/m2
23:30 48.1 °F 44.1 °F 30.24 in West 5.0 mph 9.0 mph 86 % 0.00 in 0 W/m2
23:35 48.3 °F 44.3 °F 30.24 in WSW 5.0 mph 9.0 mph 86 % 0.00 in 0 W/m2
23:40 48.4 °F 44.1 °F 30.24 in SW 5.0 mph 5.0 mph 85 % 0.00 in 0 W/m2
23:50 48.6 °F 44.3 °F 30.24 in WSW 2.0 mph 7.0 mph 85 % 0.00 in 0 W/m2
23:55 48.6 °F 44.3 °F 30.24 in SW 2.0 mph 7.0 mph 85 % 0.00 in 0 W/m2
Delerius-Weather
Compliments of Weather Underground - 1.75 mb

Data updates at regular intervals.